Time;durP1;ratioP1;P1;durP2;ratioP2;P2;SDS_P1;SDS_P2;PMS_P1;PMS_P2;Temp;Humidity;BMP_temperature;BMP_pressure;BME280_temperature;BME280_humidity;BME280_pressure;Samples;Min_cycle;Max_cycle;Signal;HPM_P1;HPM_P2
2023/05/10 00:01:36;;;;;;;20.10;11.60;;;;;;;5.62;60.72;100209.76;105926;1254;72853;-69
2023/05/10 00:04:03;;;;;;;15.60;9.40;;;;;;;5.60;60.83;100211.05;105797;1253;62024;-73
2023/05/10 00:06:31;;;;;;;15.60;9.30;;;;;;;5.56;61.09;100213.45;105601;1260;62435;-78
2023/05/10 00:08:58;;;;;;;17.30;10.20;;;;;;;5.45;62.33;100208.77;105657;1261;74712;-73
2023/05/10 00:11:25;;;;;;;21.10;13.50;;;;;;;5.48;62.10;100208.61;106000;1254;68070;-71
2023/05/10 00:13:52;;;;;;;21.50;13.20;;;;;;;5.62;61.20;100213.32;105873;1254;73553;-70
2023/05/10 00:16:18;;;;;;;37.30;19.30;;;;;;;5.57;61.40;100212.46;105592;1254;62341;-70
2023/05/10 00:18:45;;;;;;;34.50;18.10;;;;;;;5.48;63.14;100211.54;105648;1254;62164;-70
2023/05/10 00:21:12;;;;;;;29.10;16.10;;;;;;;5.41;64.50;100209.46;105916;1256;76231;-70
2023/05/10 00:23:39;;;;;;;38.80;16.80;;;;;;;5.60;63.25;100209.98;105925;1253;69608;-70
2023/05/10 00:26:06;;;;;;;36.30;18.80;;;;;;;5.65;62.76;100206.35;105955;1254;72857;-70
2023/05/10 00:28:33;;;;;;;30.80;17.80;;;;;;;5.63;62.53;100207.30;105879;1253;63118;-70
2023/05/10 00:31:00;;;;;;;47.70;23.30;;;;;;;5.54;62.45;100206.96;105841;1253;62131;-71
2023/05/10 00:33:26;;;;;;;48.80;24.20;;;;;;;5.45;63.53;100202.29;105906;1257;75518;-71
2023/05/10 00:35:53;;;;;;;42.70;22.80;;;;;;;5.39;64.03;100204.38;105898;1253;69108;-69
2023/05/10 00:38:20;;;;;;;50.00;20.50;;;;;;;5.27;65.02;100202.48;105859;1257;71902;-71
2023/05/10 00:40:48;;;;;;;58.00;23.70;;;;;;;5.17;66.08;100199.11;105917;1253;62265;-71
2023/05/10 00:43:20;;;;;;;48.60;21.60;;;;;;;5.24;65.87;100198.10;105633;1252;62319;-72
2023/05/10 00:45:48;;;;;;;40.40;21.80;;;;;;;5.36;64.59;100196.23;106007;1256;74999;-71
2023/05/10 00:48:15;;;;;;;41.00;21.50;;;;;;;5.28;64.11;100192.25;105631;1253;68874;-72
2023/05/10 00:50:41;;;;;;;40.00;20.60;;;;;;;5.22;64.20;100193.88;105664;1253;72970;-69
2023/05/10 00:53:09;;;;;;;43.30;25.60;;;;;;;5.23;64.80;100190.77;105555;1253;62098;-69
2023/05/10 00:55:36;;;;;;;44.30;21.20;;;;;;;5.14;65.39;100189.41;105704;1253;62014;-68
2023/05/10 00:58:04;;;;;;;36.50;20.40;;;;;;;5.16;65.78;100189.56;105534;1260;76559;-70
2023/05/10 01:00:32;;;;;;;34.50;16.10;;;;;;;5.15;66.16;100191.29;105531;1253;68857;-71
2023/05/10 01:03:00;;;;;;;28.30;15.80;;;;;;;5.11;66.11;100193.52;105700;1254;73362;-71
2023/05/10 01:05:27;;;;;;;27.90;14.10;;;;;;;5.07;66.17;100191.98;105889;1253;62644;-71
2023/05/10 01:07:55;;;;;;;32.50;17.00;;;;;;;5.12;65.53;100191.66;104365;1254;1003657;-72
2023/05/10 01:10:22;;;;;;;22.80;13.20;;;;;;;4.90;67.00;100194.75;105687;1259;75062;-70
2023/05/10 01:12:49;;;;;;;38.80;17.00;;;;;;;4.86;68.17;100193.48;105749;1253;68941;-71
2023/05/10 01:15:16;;;;;;;25.10;14.50;;;;;;;4.91;68.05;100196.40;105775;1256;73133;-70
2023/05/10 01:17:45;;;;;;;25.10;13.70;;;;;;;4.98;67.63;100199.16;105798;1253;62102;-71
2023/05/10 01:20:12;;;;;;;20.60;13.40;;;;;;;5.04;67.94;100197.65;105816;1256;62038;-66
2023/05/10 01:23:07;;;;;;;24.20;13.10;;;;;;;5.16;67.31;100196.23;105759;1256;76630;-72
2023/05/10 01:25:52;;;;;;;29.10;14.00;;;;;;;5.25;66.23;100197.20;105900;1254;69807;-67
2023/05/10 01:28:44;;;;;;;20.90;13.30;;;;;;;5.38;65.04;100197.65;105935;1254;72830;-70
2023/05/10 01:31:30;;;;;;;20.40;11.50;;;;;;;5.37;64.83;100193.11;105178;1252;1004639;-70
2023/05/10 01:34:13;;;;;;;22.40;10.80;;;;;;;5.60;63.72;100194.30;105962;1256;62024;-76
2023/05/10 01:36:50;;;;;;;16.30;11.20;;;;;;;5.81;62.21;100198.80;105944;1254;74478;-72
2023/05/10 01:39:22;;;;;;;17.30;9.20;;;;;;;3.09;76.76;100186.70;105851;1254;67919;-71
2023/05/10 01:41:59;;;;;;;10.40;8.80;;;;;;;4.32;73.03;100186.27;105687;1253;73773;-70
2023/05/10 01:44:29;;;;;;;15.20;8.70;;;;;;;4.81;68.62;100183.32;105673;1254;62077;-72
2023/05/10 01:47:09;;;;;;;19.90;11.40;;;;;;;5.02;66.75;100183.08;105676;1254;62159;-73
2023/05/10 01:49:56;;;;;;;15.60;10.50;;;;;;;5.09;65.82;100177.77;105820;1253;76337;-73
2023/05/10 01:52:26;;;;;;;20.80;13.50;;;;;;;3.79;71.99;100174.79;105654;1253;69685;-68
2023/05/10 01:55:01;;;;;;;19.20;12.20;;;;;;;2.44;85.20;100167.52;105658;1253;70723;-68
2023/05/10 01:57:35;;;;;;;32.10;16.10;;;;;;;3.57;76.92;100172.20;105665;1253;62183;-71
2023/05/10 02:00:06;;;;;;;18.00;12.20;;;;;;;1.99;90.88;100166.81;105678;1253;62012;-72
2023/05/10 02:02:44;;;;;;;21.20;12.80;;;;;;;1.77;95.89;100164.70;104965;1255;1002386;-75
2023/05/10 02:05:13;;;;;;;21.50;12.60;;;;;;;2.58;91.44;100168.59;105737;1253;67970;-76
2023/05/10 02:07:40;;;;;;;24.00;13.10;;;;;;;3.86;79.75;100170.00;105641;1258;72853;-71
2023/05/10 02:10:08;;;;;;;25.80;16.60;;;;;;;4.24;76.27;100172.99;105598;1253;62160;-68
2023/05/10 02:12:36;;;;;;;25.90;13.30;;;;;;;4.51;74.85;100175.35;105673;1253;62109;-69
2023/05/10 02:15:05;;;;;;;24.20;14.40;;;;;;;4.54;73.79;100169.98;105945;1257;75511;-71
2023/05/10 02:17:32;;;;;;;25.70;14.90;;;;;;;4.45;74.01;100170.05;105913;1256;69627;-70
2023/05/10 02:19:59;;;;;;;24.20;13.80;;;;;;;4.64;72.98;100174.59;105609;1253;71923;-68
2023/05/10 02:22:27;;;;;;;26.20;15.70;;;;;;;4.88;70.36;100174.16;105892;1253;62403;-69
2023/05/10 02:24:55;;;;;;;43.60;14.00;;;;;;;4.80;69.87;100172.30;105920;1253;62144;-69
2023/05/10 02:27:23;;;;;;;37.60;17.20;;;;;;;4.71;70.96;100173.10;105973;1253;75329;-72
2023/05/10 02:29:50;;;;;;;30.40;15.90;;;;;;;4.79;70.88;100171.89;105955;1254;68575;-67
2023/05/10 02:32:17;;;;;;;28.10;14.50;;;;;;;4.86;70.23;100172.20;105582;1257;73136;-66
2023/05/10 02:34:45;;;;;;;31.60;16.30;;;;;;;5.01;69.22;100170.88;105951;1252;62175;-65
2023/05/10 02:37:14;;;;;;;29.20;15.60;;;;;;;5.19;68.17;100171.34;105632;1252;61942;-69
2023/05/10 02:39:43;;;;;;;28.20;14.60;;;;;;;5.21;68.02;100172.05;105633;1260;75958;-70
2023/05/10 02:42:17;;;;;;;28.60;14.80;;;;;;;5.26;67.76;100170.82;105681;1261;69453;-70
2023/05/10 02:44:45;;;;;;;33.20;13.60;;;;;;;5.50;67.15;100171.86;105932;1254;70440;-71
2023/05/10 02:47:15;;;;;;;27.30;13.00;;;;;;;5.78;65.80;100171.84;105813;1253;62169;-69
2023/05/10 02:49:42;;;;;;;19.40;11.90;;;;;;;6.00;64.24;100169.65;105306;1253;62194;-69
2023/05/10 02:52:09;;;;;;;18.40;11.50;;;;;;;6.21;62.87;100171.52;105747;1258;75838;-72
2023/05/10 02:54:43;;;;;;;22.00;10.10;;;;;;;6.41;62.00;100169.94;105611;1253;69529;-70
2023/05/10 02:57:14;;;;;;;25.50;12.40;;;;;;;6.64;60.89;100168.41;105625;1259;72916;-70
2023/05/10 02:59:42;;;;;;;39.50;15.20;;;;;;;6.89;59.59;100170.41;105759;1253;62219;-69
2023/05/10 03:02:09;;;;;;;39.00;12.70;;;;;;;7.16;58.01;100169.41;105711;1253;62244;-70
2023/05/10 03:04:36;;;;;;;25.10;13.80;;;;;;;7.38;57.07;100168.05;105854;1256;74791;-70
2023/05/10 03:07:03;;;;;;;27.60;14.20;;;;;;;7.43;56.84;100173.08;105575;1254;67825;-74
2023/05/10 03:09:31;;;;;;;21.00;11.00;;;;;;;7.58;55.99;100173.37;105892;1256;71817;-74
2023/05/10 03:12:15;;;;;;;22.00;11.90;;;;;;;7.58;55.97;100178.30;105895;1253;62063;-71
2023/05/10 03:14:48;;;;;;;25.70;13.00;;;;;;;7.76;55.24;100183.27;105831;1253;62064;-69
2023/05/10 03:17:19;;;;;;;19.20;10.30;;;;;;;7.62;55.05;100183.80;105742;1252;76419;-70
2023/05/10 03:19:54;;;;;;;16.90;8.30;;;;;;;4.96;70.77;100174.42;105817;1256;68686;-70
2023/05/10 03:22:28;;;;;;;19.90;9.20;;;;;;;5.98;66.32;100179.90;105925;1253;73350;-69
2023/05/10 03:24:57;;;;;;;16.80;7.40;;;;;;;6.06;66.31;100181.30;105887;1253;62035;-69
2023/05/10 03:27:26;;;;;;;24.40;8.70;;;;;;;6.25;65.65;100183.41;105723;1253;62159;-70
2023/05/10 03:29:54;;;;;;;34.40;7.30;;;;;;;6.37;64.83;100185.09;105944;1255;74717;-73
2023/05/10 03:32:22;;;;;;;11.30;7.70;;;;;;;6.57;62.71;100183.38;105776;1253;68061;-71
2023/05/10 03:34:49;;;;;;;12.80;7.20;;;;;;;6.65;62.22;100180.42;105519;1257;71958;-70
2023/05/10 03:37:15;;;;;;;17.00;7.90;;;;;;;6.58;62.43;100184.15;105610;1255;62163;-70
2023/05/10 03:39:42;;;;;;;10.60;7.80;;;;;;;6.77;61.34;100187.88;105894;1257;62140;-71
2023/05/10 03:42:11;;;;;;;11.20;7.20;;;;;;;6.95;60.29;100188.39;105649;1260;75859;-71
2023/05/10 03:44:39;;;;;;;;;;;;;;;6.98;59.96;100187.93;105559;1256;68829;-70
2023/05/10 03:47:06;;;;;;;7.90;6.70;;;;;;;7.16;58.81;100189.79;105529;1258;72500;-71
2023/05/10 03:49:33;;;;;;;14.30;7.80;;;;;;;7.32;57.80;100189.15;105553;1257;62214;-69
2023/05/10 03:51:59;;;;;;;33.80;9.10;;;;;;;7.57;56.82;100190.39;105139;1257;62041;-71
2023/05/10 03:54:27;;;;;;;16.30;8.10;;;;;;;7.78;55.97;100191.85;105246;1258;74866;-69
2023/05/10 03:56:53;;;;;;;11.60;7.90;;;;;;;8.16;54.30;100193.61;105378;1258;69587;-67
2023/05/10 03:59:21;;;;;;;10.90;8.10;;;;;;;8.62;52.49;100195.86;105166;1267;73282;-70
2023/05/10 04:01:48;;;;;;;13.10;7.40;;;;;;;8.64;52.47;100193.52;105370;1258;62099;-71
2023/05/10 04:04:15;;;;;;;19.10;7.10;;;;;;;8.74;51.96;100194.57;105388;1258;62015;-69
2023/05/10 04:06:42;;;;;;;15.00;8.00;;;;;;;8.85;50.96;100192.73;105407;1262;74754;-71
2023/05/10 04:09:09;;;;;;;10.40;6.70;;;;;;;8.94;50.49;100190.74;105353;1259;68973;-69
2023/05/10 04:11:36;;;;;;;11.70;7.20;;;;;;;9.14;50.07;100191.35;105293;1262;71999;-74
2023/05/10 04:14:03;;;;;;;18.70;8.50;;;;;;;9.52;49.25;100193.70;105403;1256;62127;-71
2023/05/10 04:16:29;;;;;;;9.30;6.80;;;;;;;9.96;48.36;100196.94;105696;1258;62038;-70
2023/05/10 04:18:57;;;;;;;11.40;7.80;;;;;;;10.51;47.28;100195.84;105732;1257;76101;-71
2023/05/10 04:21:24;;;;;;;18.10;9.80;;;;;;;11.11;45.84;100201.84;105718;1254;69744;-70
2023/05/10 04:23:51;;;;;;;14.60;8.60;;;;;;;11.65;44.43;100204.95;105977;1256;73161;-71
2023/05/10 04:26:18;;;;;;;26.30;9.90;;;;;;;12.20;43.30;100206.61;105871;1254;62045;-72
2023/05/10 04:28:45;;;;;;;26.40;12.20;;;;;;;12.71;41.90;100209.52;105950;1253;62162;-72
2023/05/10 04:31:12;;;;;;;22.10;10.10;;;;;;;12.98;41.03;100210.13;105568;1254;75955;-73
2023/05/10 04:33:39;;;;;;;18.80;9.70;;;;;;;13.30;40.22;100216.52;106063;1253;69106;-71
2023/05/10 04:36:05;;;;;;;16.40;8.50;;;;;;;13.69;39.92;100220.09;105939;1256;70397;-75
2023/05/10 04:38:32;;;;;;;40.20;9.70;;;;;;;14.02;39.01;100215.75;105731;1256;63168;-72
2023/05/10 04:41:08;;;;;;;28.70;11.20;;;;;;;14.48;38.78;100218.92;105829;1253;62036;-71
2023/05/10 04:43:35;;;;;;;21.70;11.10;;;;;;;14.77;38.63;100218.95;105887;1257;76384;-73
2023/05/10 04:46:03;;;;;;;29.50;10.10;;;;;;;15.10;38.27;100218.43;105711;1253;68819;-75
2023/05/10 04:48:30;;;;;;;15.00;8.00;;;;;;;15.33;38.03;100218.70;106021;1254;73469;-74
2023/05/10 04:50:57;;;;;;;26.70;7.50;;;;;;;15.41;38.03;100217.08;106000;1252;62146;-72
2023/05/10 04:53:23;;;;;;;8.10;5.60;;;;;;;15.82;37.43;100223.09;106063;1254;62075;-74
2023/05/10 04:55:50;;;;;;;18.60;6.20;;;;;;;16.19;36.48;100224.40;106103;1257;75338;-77
2023/05/10 04:58:17;;;;;;;8.10;4.80;;;;;;;16.62;35.98;100221.13;106083;1256;68538;-72
2023/05/10 05:00:44;;;;;;;8.20;4.10;;;;;;;16.95;34.95;100224.62;106082;1254;71416;-72
2023/05/10 05:03:11;;;;;;;12.10;4.80;;;;;;;17.19;34.58;100228.66;105971;1252;62114;-72
2023/05/10 05:05:38;;;;;;;8.30;5.00;;;;;;;17.08;34.16;100225.20;106001;1253;62158;-73
2023/05/10 05:08:05;;;;;;;5.80;4.10;;;;;;;17.20;33.99;100226.10;105968;1255;75522;-71
2023/05/10 05:10:31;;;;;;;10.60;5.60;;;;;;;17.55;33.40;100232.48;105757;1258;68343;-77
2023/05/10 05:12:58;;;;;;;13.90;6.30;;;;;;;18.01;33.28;100236.23;106019;1253;73511;-75
2023/05/10 05:15:26;;;;;;;8.40;4.80;;;;;;;18.49;32.38;100236.38;105551;1259;62140;-73
2023/05/10 05:17:53;;;;;;;11.00;5.50;;;;;;;18.74;32.27;100234.50;105576;1259;62153;-77
2023/05/10 05:20:20;;;;;;;8.00;4.70;;;;;;;19.38;31.31;100238.85;105584;1257;74570;-72
2023/05/10 05:22:47;;;;;;;4.60;3.00;;;;;;;19.36;30.26;100243.56;105613;1258;69740;-74
2023/05/10 05:25:15;;;;;;;11.90;4.00;;;;;;;19.62;30.30;100245.70;104907;1259;1002438;-75
2023/05/10 05:27:42;;;;;;;10.00;4.30;;;;;;;19.48;30.15;100241.26;105626;1259;62213;-70
2023/05/10 05:30:09;;;;;;;6.00;3.60;;;;;;;19.53;30.38;100241.40;105685;1259;63164;-74
2023/05/10 05:32:36;;;;;;;7.00;3.80;;;;;;;19.85;29.84;100243.67;105598;1261;75487;-73
2023/05/10 05:35:04;;;;;;;5.20;3.40;;;;;;;19.69;29.88;100244.20;105434;1261;69086;-74
2023/05/10 05:37:31;;;;;;;17.00;5.20;;;;;;;14.67;35.97;100221.59;105609;1258;72730;-71
2023/05/10 05:39:58;;;;;;;8.90;4.00;;;;;;;13.59;38.17;100215.73;105562;1259;62116;-69
2023/05/10 05:42:25;;;;;;;6.80;3.40;;;;;;;13.26;39.49;100209.35;105579;1259;62330;-73
2023/05/10 05:45:57;;;;;;;5.20;3.20;;;;;;;13.43;39.37;100209.14;105609;1259;73970;-72
2023/05/10 05:48:25;;;;;;;10.80;3.70;;;;;;;13.85;39.35;100212.87;105069;1253;1002944;-73
2023/05/10 05:50:56;;;;;;;4.60;3.20;;;;;;;14.33;38.26;100212.14;106015;1253;62143;-74
2023/05/10 05:53:23;;;;;;;7.00;3.10;;;;;;;14.34;37.48;100210.20;106009;1256;61952;-73
2023/05/10 05:55:54;;;;;;;5.60;3.50;;;;;;;14.21;37.72;100209.86;106026;1253;62050;-75
2023/05/10 05:58:22;;;;;;;9.90;4.30;;;;;;;14.33;37.91;100211.44;105979;1255;76080;-73
2023/05/10 06:00:49;;;;;;;4.90;3.50;;;;;;;14.25;37.67;100212.48;106014;1256;67727;-74
2023/05/10 06:03:16;;;;;;;6.60;4.20;;;;;;;14.00;37.91;100209.52;105787;1254;72575;-72
2023/05/10 06:05:43;;;;;;;6.90;3.60;;;;;;;14.13;37.97;100213.96;106106;1254;62062;-78
2023/05/10 06:08:10;;;;;;;15.40;3.60;;;;;;;14.55;37.41;100218.80;105839;1254;63162;-75
2023/05/10 06:10:38;;;;;;;3.40;3.10;;;;;;;15.10;36.96;100216.05;106120;1254;75529;-75
2023/05/10 06:13:06;;;;;;;4.50;3.10;;;;;;;15.40;35.65;100217.13;106120;1254;68271;-73
2023/05/10 06:15:33;;;;;;;4.60;2.90;;;;;;;15.32;34.98;100220.74;106075;1254;73885;-75
2023/05/10 06:18:00;;;;;;;5.00;2.90;;;;;;;15.07;35.53;100214.38;106182;1254;62155;-75
2023/05/10 06:20:27;;;;;;;5.20;2.70;;;;;;;15.17;35.19;100211.48;106096;1253;62066;-73
2023/05/10 06:22:54;;;;;;;4.80;3.30;;;;;;;15.35;35.42;100214.20;105941;1257;75554;-76
2023/05/10 06:25:21;;;;;;;9.40;3.30;;;;;;;15.30;34.83;100211.86;105963;1253;69282;-73
2023/05/10 06:27:47;;;;;;;6.10;3.10;;;;;;;16.26;34.03;100220.38;105956;1253;73359;-75
2023/05/10 06:30:22;;;;;;;8.40;4.90;;;;;;;16.54;34.12;100216.05;105978;1257;62096;-75
2023/05/10 06:32:49;;;;;;;5.10;3.50;;;;;;;16.93;33.46;100221.39;105926;1253;62076;-71
2023/05/10 06:35:16;;;;;;;7.30;4.00;;;;;;;15.80;33.98;100217.17;105955;1258;75536;-73
2023/05/10 06:37:44;;;;;;;11.20;5.00;;;;;;;15.29;34.69;100216.41;105953;1258;66887;-75
2023/05/10 06:40:11;;;;;;;7.90;3.00;;;;;;;15.15;34.31;100215.69;105886;1253;73451;-75
2023/05/10 06:42:39;;;;;;;;;;;;;;;14.98;34.81;100211.49;105927;1253;62134;-75
2023/05/10 06:45:06;;;;;;;5.90;2.80;;;;;;;15.22;34.83;100210.89;105953;1257;62054;-74
2023/05/10 06:47:33;;;;;;;;;;;;;;;15.28;34.18;100211.92;106003;1258;75691;-75
2023/05/10 06:50:05;;;;;;;3.80;2.90;;;;;;;15.19;34.54;100213.59;106004;1253;70206;-75
2023/05/10 06:52:33;;;;;;;7.70;3.40;;;;;;;15.19;34.30;100217.74;106112;1254;72167;-75
2023/05/10 06:55:00;;;;;;;4.20;3.10;;;;;;;15.44;33.93;100215.61;106039;1253;62038;-74
2023/05/10 06:57:27;;;;;;;8.10;2.90;;;;;;;15.83;33.97;100215.14;106080;1256;62050;-73
2023/05/10 06:59:58;;;;;;;9.00;2.90;;;;;;;15.92;33.45;100209.38;106046;1253;73718;-74
2023/05/10 07:02:26;;;;;;;8.70;2.90;;;;;;;16.64;32.34;100215.46;105776;1253;68725;-74
2023/05/10 07:04:53;;;;;;;12.40;3.60;;;;;;;16.34;32.78;100215.31;106050;1256;71507;-76
2023/05/10 07:07:20;;;;;;;4.40;2.80;;;;;;;16.76;31.95;100212.56;106017;1254;62130;-73
2023/05/10 07:09:48;;;;;;;4.00;2.90;;;;;;;16.79;32.45;100206.91;105906;1257;63101;-73
2023/05/10 07:12:15;;;;;;;2.80;2.40;;;;;;;16.22;32.43;100203.77;105967;1256;75421;-74
2023/05/10 07:14:42;;;;;;;5.90;3.20;;;;;;;15.96;33.62;100208.77;105935;1256;67277;-74
2023/05/10 07:17:09;;;;;;;4.50;3.50;;;;;;;15.84;33.97;100213.19;105931;1258;73772;-73
2023/05/10 07:19:36;;;;;;;6.60;3.10;;;;;;;15.82;33.49;100212.22;105938;1253;62099;-75
2023/05/10 07:22:04;;;;;;;9.10;3.90;;;;;;;16.12;32.33;100217.80;105902;1253;62118;-74
2023/05/10 07:24:33;;;;;;;7.50;2.70;;;;;;;15.77;30.85;100217.36;105879;1253;74930;-76
2023/05/10 07:26:59;;;;;;;4.50;3.00;;;;;;;14.63;32.10;100210.13;106013;1256;69755;-76
2023/05/10 07:29:26;;;;;;;17.90;5.80;;;;;;;14.30;33.04;100209.35;105810;1253;71713;-73
2023/05/10 07:31:53;;;;;;;11.50;6.50;;;;;;;14.65;32.46;100209.27;106032;1253;61949;-74
2023/05/10 07:34:22;;;;;;;17.90;9.10;;;;;;;14.84;32.16;100212.78;105809;1253;62022;-78
2023/05/10 07:36:49;;;;;;;6.10;4.00;;;;;;;15.06;32.24;100211.30;106014;1253;76103;-79
2023/05/10 07:39:16;;;;;;;6.70;4.20;;;;;;;15.15;32.49;100209.41;106042;1256;68702;-75
2023/05/10 07:41:54;;;;;;;9.60;4.20;;;;;;;15.17;32.28;100206.27;106015;1253;73718;-75
2023/05/10 07:44:21;;;;;;;4.80;3.40;;;;;;;15.11;31.83;100208.59;105903;1253;62137;-74
2023/05/10 07:46:49;;;;;;;3.70;2.80;;;;;;;15.06;31.69;100209.51;105999;1253;61982;-73
2023/05/10 07:49:16;;;;;;;4.90;3.30;;;;;;;15.04;31.71;100206.63;106066;1252;73681;-75
2023/05/10 07:51:43;;;;;;;6.70;3.10;;;;;;;15.04;31.57;100212.15;105914;1255;69641;-73
2023/05/10 07:54:10;;;;;;;6.90;2.60;;;;;;;14.81;31.53;100206.78;106095;1257;72493;-74
2023/05/10 07:56:36;;;;;;;3.10;2.70;;;;;;;15.14;31.20;100207.40;106102;1254;62031;-74
2023/05/10 07:59:04;;;;;;;4.20;3.20;;;;;;;16.01;30.74;100208.30;106053;1254;62050;-70
2023/05/10 08:01:32;;;;;;;5.90;3.20;;;;;;;15.36;31.29;100203.88;105967;1256;76195;-74
2023/05/10 08:03:59;;;;;;;7.10;3.50;;;;;;;14.13;33.26;100198.21;106098;1257;69587;-75
2023/05/10 08:06:27;;;;;;;6.40;3.60;;;;;;;15.91;31.13;100211.29;106044;1254;71980;-73
2023/05/10 08:08:55;;;;;;;12.70;6.00;;;;;;;15.42;31.18;100209.95;105784;1260;62098;-74
2023/05/10 08:11:22;;;;;;;9.40;5.40;;;;;;;14.15;32.44;100207.50;106102;1256;62028;-73
2023/05/10 08:13:49;;;;;;;6.10;3.50;;;;;;;14.11;31.61;100204.08;106064;1256;75887;-74
2023/05/10 08:16:17;;;;;;;5.60;3.60;;;;;;;14.05;31.44;100206.36;105953;1256;66778;-76
2023/05/10 08:18:44;;;;;;;6.20;4.20;;;;;;;14.31;31.04;100205.46;106094;1254;73671;-74
2023/05/10 08:21:11;;;;;;;13.00;5.70;;;;;;;14.27;31.19;100205.73;106063;1256;62044;-75
2023/05/10 08:23:38;;;;;;;5.40;3.90;;;;;;;14.30;31.14;100199.16;106022;1255;62057;-77
2023/05/10 08:26:05;;;;;;;19.40;11.50;;;;;;;14.39;31.10;100196.66;106085;1254;76294;-76
2023/05/10 08:28:32;;;;;;;6.50;3.90;;;;;;;14.62;30.81;100196.84;106063;1254;68344;-73
2023/05/10 08:30:59;;;;;;;11.50;3.50;;;;;;;14.77;31.02;100198.36;106093;1254;71914;-74
2023/05/10 08:33:26;;;;;;;6.60;3.60;;;;;;;14.99;30.62;100200.84;106060;1254;62059;-75
2023/05/10 08:35:52;;;;;;;3.50;2.70;;;;;;;15.21;30.44;100201.42;105835;1257;61958;-74
2023/05/10 08:38:19;;;;;;;10.00;3.30;;;;;;;15.25;29.68;100196.77;106056;1257;76611;-73
2023/05/10 08:40:46;;;;;;;6.70;3.00;;;;;;;15.06;29.64;100199.99;106089;1256;67505;-72
2023/05/10 08:43:16;;;;;;;7.60;3.00;;;;;;;14.87;29.65;100198.27;106009;1253;72915;-74
2023/05/10 08:45:45;;;;;;;5.10;3.00;;;;;;;14.94;29.71;100197.20;105933;1253;62244;-73
2023/05/10 08:48:12;;;;;;;8.20;3.50;;;;;;;15.24;29.97;100195.84;106057;1254;61995;-73
2023/05/10 08:50:40;;;;;;;3.10;2.80;;;;;;;15.30;29.00;100194.45;106002;1254;76418;-74
2023/05/10 08:53:12;;;;;;;7.70;3.00;;;;;;;15.43;29.51;100192.52;105962;1256;67589;-73
2023/05/10 08:55:42;;;;;;;6.60;3.00;;;;;;;15.61;29.33;100195.39;105964;1259;73144;-73
2023/05/10 08:58:09;;;;;;;17.30;11.20;;;;;;;15.85;28.93;100198.30;106043;1254;62123;-75
2023/05/10 09:00:37;;;;;;;76.40;58.30;;;;;;;16.00;28.65;100192.38;106108;1257;63090;-74
2023/05/10 09:03:05;;;;;;;13.60;10.90;;;;;;;15.84;28.01;100192.41;105853;1253;133038;-74
2023/05/10 09:05:32;;;;;;;6.50;3.40;;;;;;;15.77;28.23;100193.33;105854;1253;69748;-75
2023/05/10 09:08:01;;;;;;;3.90;2.70;;;;;;;15.82;28.29;100191.65;106081;1253;72480;-75
2023/05/10 09:10:29;;;;;;;3.00;2.50;;;;;;;15.80;28.34;100194.21;106030;1254;62151;-76
2023/05/10 09:12:56;;;;;;;8.40;2.70;;;;;;;15.49;28.55;100186.94;105839;1259;62115;-74
2023/05/10 09:15:25;;;;;;;7.70;2.90;;;;;;;15.54;29.06;100186.95;105830;1261;76257;-74
2023/05/10 09:17:52;;;;;;;12.50;2.90;;;;;;;15.43;28.54;100185.75;106061;1257;66501;-75
2023/05/10 09:20:20;;;;;;;3.30;2.60;;;;;;;15.32;28.67;100189.74;105831;1254;72730;-75
2023/05/10 09:22:48;;;;;;;5.20;2.60;;;;;;;15.39;28.94;100188.29;106130;1254;63117;-73
2023/05/10 09:25:15;;;;;;;8.00;2.40;;;;;;;15.41;28.83;100186.18;106133;1257;63237;-74
2023/05/10 09:27:47;;;;;;;6.80;2.90;;;;;;;15.32;29.76;100187.58;105944;1259;73573;-74
2023/05/10 09:30:27;;;;;;;9.10;2.60;;;;;;;15.33;30.04;100183.80;105964;1257;67886;-74
2023/05/10 09:32:55;;;;;;;6.30;2.80;;;;;;;15.19;30.06;100177.79;106027;1257;71948;-73
2023/05/10 09:35:23;;;;;;;3.60;2.30;;;;;;;15.07;30.58;100177.39;106111;1256;62075;-70
2023/05/10 09:37:55;;;;;;;8.20;4.10;;;;;;;15.14;30.77;100174.20;106104;1257;62016;-72
2023/05/10 09:40:27;;;;;;;6.10;4.30;;;;;;;15.13;31.10;100173.17;105995;1256;76567;-74
2023/05/10 09:43:01;;;;;;;6.80;3.50;;;;;;;15.06;31.32;100168.84;105965;1253;69678;-73
2023/05/10 09:45:30;;;;;;;8.90;3.60;;;;;;;14.85;31.28;100169.56;105945;1258;73716;-74
2023/05/10 09:48:10;;;;;;;9.70;8.80;;;;;;;14.36;31.60;100161.00;105986;1253;62154;-74
2023/05/10 09:50:38;;;;;;;6.20;2.70;;;;;;;14.31;32.18;100162.44;106009;1259;62066;-75
2023/05/10 09:53:05;;;;;;;6.80;3.10;;;;;;;14.81;31.39;100160.69;106013;1253;76684;-74
2023/05/10 09:55:39;;;;;;;5.10;3.90;;;;;;;15.01;30.33;100171.03;106234;1257;67652;-72
2023/05/10 09:58:15;;;;;;;6.20;4.70;;;;;;;14.32;31.44;100170.17;106159;1255;71489;-75
2023/05/10 10:00:47;;;;;;;5.90;3.80;;;;;;;14.49;31.66;100166.98;105829;1257;63131;-74
2023/05/10 10:03:16;;;;;;;6.40;3.10;;;;;;;14.35;30.89;100158.95;105943;1257;62038;-75
2023/05/10 10:05:43;;;;;;;2.80;2.50;;;;;;;14.32;30.35;100162.71;106229;1256;74508;-74
2023/05/10 10:08:11;;;;;;;4.90;3.80;;;;;;;14.39;30.31;100159.40;106146;1256;69599;-72
2023/05/10 10:10:40;;;;;;;7.20;3.40;;;;;;;14.44;30.71;100157.59;106127;1260;73628;-73
2023/05/10 10:13:07;;;;;;;;;;;;;;;14.45;30.36;100157.42;106168;1254;62136;-73
2023/05/10 10:15:34;;;;;;;8.70;3.50;;;;;;;14.32;30.81;100154.98;106170;1254;62169;-75
2023/05/10 10:18:01;;;;;;;4.20;2.70;;;;;;;14.24;30.89;100155.17;106038;1256;74506;-73
2023/05/10 10:20:28;;;;;;;3.70;2.70;;;;;;;14.17;30.53;100153.85;106169;1266;67583;-75
2023/05/10 10:22:55;;;;;;;10.40;3.50;;;;;;;14.32;30.85;100151.32;106254;1256;73441;-74
2023/05/10 10:25:22;;;;;;;7.50;3.80;;;;;;;14.58;31.40;100148.25;106186;1258;62155;-75
2023/05/10 10:27:52;;;;;;;5.10;3.50;;;;;;;14.96;31.23;100146.29;105945;1259;62065;-76
2023/05/10 10:30:19;;;;;;;12.70;4.40;;;;;;;15.14;31.33;100141.86;106221;1256;75068;-74
2023/05/10 10:33:17;;;;;;;5.80;3.30;;;;;;;15.37;30.87;100143.40;106179;1256;68832;-74
2023/05/10 10:35:55;;;;;;;12.30;4.00;;;;;;;17.85;27.63;100155.38;106130;1255;72401;-75
2023/05/10 10:38:22;;;;;;;5.00;2.70;;;;;;;18.78;26.56;100159.55;105833;1255;62243;-77
2023/05/10 10:41:01;;;;;;;7.20;2.90;;;;;;;18.75;26.34;100167.17;105641;1262;62255;-75
2023/05/10 10:43:28;;;;;;;7.50;2.60;;;;;;;18.03;26.41;100155.79;105436;1268;74861;-76
2023/05/10 10:46:17;;;;;;;2.70;2.50;;;;;;;15.98;28.42;100146.15;105473;1264;67905;-72
2023/05/10 10:48:48;;;;;;;5.70;3.30;;;;;;;17.87;26.98;100149.71;105429;1265;73819;-73
2023/05/10 10:51:15;;;;;;;6.00;3.40;;;;;;;15.73;29.23;100142.97;105354;1259;62156;-75
2023/05/10 10:53:42;;;;;;;12.60;6.60;;;;;;;15.08;29.88;100140.63;105409;1266;62452;-72
2023/05/10 10:56:10;;;;;;;10.10;8.40;;;;;;;15.02;30.15;100139.39;105424;1262;74639;-71
2023/05/10 10:58:38;;;;;;;4.30;3.50;;;;;;;16.82;28.07;100137.21;105440;1264;67892;-72
2023/05/10 11:01:17;;;;;;;10.80;6.10;;;;;;;17.35;27.72;100141.66;105410;1263;71189;-74
2023/05/10 11:04:02;;;;;;;16.00;6.80;;;;;;;17.67;27.27;100144.04;105154;1266;62153;-74
2023/05/10 11:06:33;;;;;;;22.30;14.00;;;;;;;15.53;29.97;100135.97;105351;1267;62181;-73
2023/05/10 11:09:17;;;;;;;9.20;4.90;;;;;;;15.40;30.26;100135.48;105093;1268;76385;-72
2023/05/10 11:11:52;;;;;;;11.30;3.60;;;;;;;15.73;29.91;100131.19;105377;1265;68732;-73
2023/05/10 11:14:22;;;;;;;5.10;3.90;;;;;;;15.79;29.64;100130.44;105671;1260;73247;-74
2023/05/10 11:16:49;;;;;;;7.40;4.40;;;;;;;15.91;29.58;100126.56;105757;1259;63372;-74
2023/05/10 11:19:17;;;;;;;5.00;3.40;;;;;;;16.49;29.89;100126.65;105730;1267;61981;-73
2023/05/10 11:21:51;;;;;;;10.90;5.10;;;;;;;16.86;27.98;100132.27;105725;1258;75308;-74
2023/05/10 11:24:21;;;;;;;5.00;3.60;;;;;;;17.25;27.80;100129.48;105002;1259;1002970;-74